sensor_id;sensor_type;location;lat;lon;timestamp;P1;durP1;ratioP1;P2;durP2;ratioP2
79640;SDS011;69115;49.904;14.390;2023-10-31T00:01:14;26.90;;;12.30;;
79640;SDS011;69115;49.904;14.390;2023-10-31T00:03:39;23.98;;;11.68;;
79640;SDS011;69115;49.904;14.390;2023-10-31T00:06:07;24.90;;;11.77;;
79640;SDS011;69115;49.904;14.390;2023-10-31T00:08:33;22.88;;;11.90;;
79640;SDS011;69115;49.904;14.390;2023-10-31T00:10:58;23.10;;;11.75;;
79640;SDS011;69115;49.904;14.390;2023-10-31T00:13:24;21.52;;;11.48;;
79640;SDS011;69115;49.904;14.390;2023-10-31T00:15:49;21.88;;;11.07;;
79640;SDS011;69115;49.904;14.390;2023-10-31T00:18:15;21.27;;;10.23;;
79640;SDS011;69115;49.904;14.390;2023-10-31T00:20:40;18.58;;;10.25;;
79640;SDS011;69115;49.904;14.390;2023-10-31T00:23:06;22.48;;;10.60;;
79640;SDS011;69115;49.904;14.390;2023-10-31T00:25:31;18.27;;;10.38;;
79640;SDS011;69115;49.904;14.390;2023-10-31T00:27:57;19.88;;;10.52;;
79640;SDS011;69115;49.904;14.390;2023-10-31T00:30:22;15.65;;;9.48;;
79640;SDS011;69115;49.904;14.390;2023-10-31T00:32:47;17.63;;;8.85;;
79640;SDS011;69115;49.904;14.390;2023-10-31T00:35:13;17.67;;;9.95;;
79640;SDS011;69115;49.904;14.390;2023-10-31T00:37:38;14.27;;;8.48;;
79640;SDS011;69115;49.904;14.390;2023-10-31T00:40:07;17.20;;;9.55;;
79640;SDS011;69115;49.904;14.390;2023-10-31T00:42:36;15.90;;;9.05;;
79640;SDS011;69115;49.904;14.390;2023-10-31T00:45:02;13.55;;;7.65;;
79640;SDS011;69115;49.904;14.390;2023-10-31T00:47:28;19.25;;;9.93;;
79640;SDS011;69115;49.904;14.390;2023-10-31T00:49:53;14.73;;;8.48;;
79640;SDS011;69115;49.904;14.390;2023-10-31T00:52:19;15.52;;;8.48;;
79640;SDS011;69115;49.904;14.390;2023-10-31T00:54:44;16.02;;;9.05;;
79640;SDS011;69115;49.904;14.390;2023-10-31T00:57:10;15.38;;;8.95;;
79640;SDS011;69115;49.904;14.390;2023-10-31T00:59:35;15.48;;;8.30;;
79640;SDS011;69115;49.904;14.390;2023-10-31T01:02:01;14.35;;;8.50;;
79640;SDS011;69115;49.904;14.390;2023-10-31T01:04:26;15.32;;;9.63;;
79640;SDS011;69115;49.904;14.390;2023-10-31T01:06:52;16.80;;;9.00;;
79640;SDS011;69115;49.904;14.390;2023-10-31T01:09:17;15.50;;;8.70;;
79640;SDS011;69115;49.904;14.390;2023-10-31T01:11:42;13.25;;;8.27;;
79640;SDS011;69115;49.904;14.390;2023-10-31T01:14:08;9.82;;;6.32;;
79640;SDS011;69115;49.904;14.390;2023-10-31T01:16:33;12.98;;;7.35;;
79640;SDS011;69115;49.904;14.390;2023-10-31T01:18:59;13.05;;;7.13;;
79640;SDS011;69115;49.904;14.390;2023-10-31T01:21:24;11.10;;;6.95;;
79640;SDS011;69115;49.904;14.390;2023-10-31T01:23:50;11.65;;;6.60;;
79640;SDS011;69115;49.904;14.390;2023-10-31T01:26:15;10.52;;;6.18;;
79640;SDS011;69115;49.904;14.390;2023-10-31T01:28:41;9.10;;;5.25;;
79640;SDS011;69115;49.904;14.390;2023-10-31T01:31:06;8.00;;;4.85;;
79640;SDS011;69115;49.904;14.390;2023-10-31T01:33:32;7.50;;;5.50;;
79640;SDS011;69115;49.904;14.390;2023-10-31T01:35:57;8.48;;;5.28;;
79640;SDS011;69115;49.904;14.390;2023-10-31T01:38:23;8.75;;;4.90;;
79640;SDS011;69115;49.904;14.390;2023-10-31T01:40:49;8.70;;;5.28;;
79640;SDS011;69115;49.904;14.390;2023-10-31T01:45:56;10.25;;;5.60;;
79640;SDS011;69115;49.904;14.390;2023-10-31T01:48:22;7.82;;;4.63;;
79640;SDS011;69115;49.904;14.390;2023-10-31T01:50:49;9.02;;;4.68;;
79640;SDS011;69115;49.904;14.390;2023-10-31T01:53:15;8.65;;;5.30;;
79640;SDS011;69115;49.904;14.390;2023-10-31T01:55:40;6.65;;;5.10;;
79640;SDS011;69115;49.904;14.390;2023-10-31T01:58:06;8.85;;;5.60;;
79640;SDS011;69115;49.904;14.390;2023-10-31T02:00:31;13.75;;;7.43;;
79640;SDS011;69115;49.904;14.390;2023-10-31T02:02:57;11.82;;;6.47;;
79640;SDS011;69115;49.904;14.390;2023-10-31T02:05:22;7.63;;;5.40;;
79640;SDS011;69115;49.904;14.390;2023-10-31T02:07:48;11.63;;;5.95;;
79640;SDS011;69115;49.904;14.390;2023-10-31T02:10:14;9.00;;;5.40;;
79640;SDS011;69115;49.904;14.390;2023-10-31T02:12:39;8.48;;;5.20;;
79640;SDS011;69115;49.904;14.390;2023-10-31T02:15:05;7.88;;;5.15;;
79640;SDS011;69115;49.904;14.390;2023-10-31T02:17:31;8.65;;;5.32;;
79640;SDS011;69115;49.904;14.390;2023-10-31T02:19:56;7.68;;;4.85;;
79640;SDS011;69115;49.904;14.390;2023-10-31T02:22:22;7.97;;;5.78;;
79640;SDS011;69115;49.904;14.390;2023-10-31T02:24:48;8.77;;;5.55;;
79640;SDS011;69115;49.904;14.390;2023-10-31T02:27:13;9.38;;;5.72;;
79640;SDS011;69115;49.904;14.390;2023-10-31T02:29:39;9.27;;;5.80;;
79640;SDS011;69115;49.904;14.390;2023-10-31T02:32:05;8.60;;;5.90;;
79640;SDS011;69115;49.904;14.390;2023-10-31T02:34:30;10.60;;;6.18;;
79640;SDS011;69115;49.904;14.390;2023-10-31T02:36:56;9.15;;;6.28;;
79640;SDS011;69115;49.904;14.390;2023-10-31T02:39:21;11.75;;;7.78;;
79640;SDS011;69115;49.904;14.390;2023-10-31T02:41:47;9.85;;;6.78;;
79640;SDS011;69115;49.904;14.390;2023-10-31T02:44:14;10.70;;;7.50;;
79640;SDS011;69115;49.904;14.390;2023-10-31T02:46:42;13.32;;;8.80;;
79640;SDS011;69115;49.904;14.390;2023-10-31T02:49:08;9.90;;;7.97;;
79640;SDS011;69115;49.904;14.390;2023-10-31T02:51:35;10.77;;;8.10;;
79640;SDS011;69115;49.904;14.390;2023-10-31T02:54:00;12.32;;;7.75;;
79640;SDS011;69115;49.904;14.390;2023-10-31T02:56:26;11.60;;;7.78;;
79640;SDS011;69115;49.904;14.390;2023-10-31T02:58:51;11.50;;;8.15;;
79640;SDS011;69115;49.904;14.390;2023-10-31T03:01:17;10.75;;;7.70;;
79640;SDS011;69115;49.904;14.390;2023-10-31T03:03:47;12.00;;;8.27;;
79640;SDS011;69115;49.904;14.390;2023-10-31T03:06:13;10.93;;;7.28;;
79640;SDS011;69115;49.904;14.390;2023-10-31T03:08:38;9.10;;;6.72;;
79640;SDS011;69115;49.904;14.390;2023-10-31T03:11:04;11.07;;;7.55;;
79640;SDS011;69115;49.904;14.390;2023-10-31T03:13:30;8.63;;;6.55;;
79640;SDS011;69115;49.904;14.390;2023-10-31T03:15:55;10.35;;;6.90;;
79640;SDS011;69115;49.904;14.390;2023-10-31T03:18:21;9.10;;;6.22;;
79640;SDS011;69115;49.904;14.390;2023-10-31T03:20:47;7.85;;;6.20;;
79640;SDS011;69115;49.904;14.390;2023-10-31T03:23:13;8.20;;;5.47;;
79640;SDS011;69115;49.904;14.390;2023-10-31T03:25:39;7.97;;;5.15;;
79640;SDS011;69115;49.904;14.390;2023-10-31T03:28:07;6.85;;;4.63;;
79640;SDS011;69115;49.904;14.390;2023-10-31T03:30:43;5.35;;;4.28;;
79640;SDS011;69115;49.904;14.390;2023-10-31T03:33:08;6.90;;;4.70;;
79640;SDS011;69115;49.904;14.390;2023-10-31T03:35:34;6.20;;;3.97;;
79640;SDS011;69115;49.904;14.390;2023-10-31T03:37:59;6.65;;;4.18;;
79640;SDS011;69115;49.904;14.390;2023-10-31T03:40:25;5.47;;;3.95;;
79640;SDS011;69115;49.904;14.390;2023-10-31T03:42:50;4.50;;;3.38;;
79640;SDS011;69115;49.904;14.390;2023-10-31T03:45:16;5.45;;;3.40;;
79640;SDS011;69115;49.904;14.390;2023-10-31T03:47:41;5.68;;;3.38;;
79640;SDS011;69115;49.904;14.390;2023-10-31T03:50:10;5.18;;;3.25;;
79640;SDS011;69115;49.904;14.390;2023-10-31T03:52:36;4.40;;;3.30;;
79640;SDS011;69115;49.904;14.390;2023-10-31T03:55:01;4.18;;;3.20;;
79640;SDS011;69115;49.904;14.390;2023-10-31T03:57:27;3.85;;;2.85;;
79640;SDS011;69115;49.904;14.390;2023-10-31T03:59:53;3.83;;;2.83;;
79640;SDS011;69115;49.904;14.390;2023-10-31T04:02:18;4.00;;;2.95;;
79640;SDS011;69115;49.904;14.390;2023-10-31T04:04:43;4.03;;;3.00;;
79640;SDS011;69115;49.904;14.390;2023-10-31T04:07:09;4.65;;;3.00;;
79640;SDS011;69115;49.904;14.390;2023-10-31T04:09:34;4.30;;;2.90;;
79640;SDS011;69115;49.904;14.390;2023-10-31T04:12:00;4.43;;;2.53;;
79640;SDS011;69115;49.904;14.390;2023-10-31T04:14:28;5.30;;;2.60;;
79640;SDS011;69115;49.904;14.390;2023-10-31T04:16:54;5.13;;;2.70;;
79640;SDS011;69115;49.904;14.390;2023-10-31T04:19:19;5.32;;;2.60;;
79640;SDS011;69115;49.904;14.390;2023-10-31T04:21:45;4.20;;;2.60;;
79640;SDS011;69115;49.904;14.390;2023-10-31T04:24:10;3.33;;;2.38;;
79640;SDS011;69115;49.904;14.390;2023-10-31T04:26:36;3.10;;;2.13;;
79640;SDS011;69115;49.904;14.390;2023-10-31T04:29:01;3.40;;;2.30;;
79640;SDS011;69115;49.904;14.390;2023-10-31T04:31:27;3.10;;;2.30;;
79640;SDS011;69115;49.904;14.390;2023-10-31T04:33:52;3.30;;;2.25;;
79640;SDS011;69115;49.904;14.390;2023-10-31T04:36:18;3.33;;;2.20;;
79640;SDS011;69115;49.904;14.390;2023-10-31T04:38:43;3.33;;;2.20;;
79640;SDS011;69115;49.904;14.390;2023-10-31T04:41:09;2.70;;;2.00;;
79640;SDS011;69115;49.904;14.390;2023-10-31T04:43:34;3.63;;;2.30;;
79640;SDS011;69115;49.904;14.390;2023-10-31T04:46:00;3.22;;;2.33;;
79640;SDS011;69115;49.904;14.390;2023-10-31T04:48:25;3.47;;;2.13;;
79640;SDS011;69115;49.904;14.390;2023-10-31T04:50:51;3.65;;;2.50;;
79640;SDS011;69115;49.904;14.390;2023-10-31T04:53:16;3.75;;;2.33;;
79640;SDS011;69115;49.904;14.390;2023-10-31T04:55:42;3.65;;;2.15;;
79640;SDS011;69115;49.904;14.390;2023-10-31T04:58:07;2.70;;;1.92;;
79640;SDS011;69115;49.904;14.390;2023-10-31T05:00:33;3.00;;;2.05;;
79640;SDS011;69115;49.904;14.390;2023-10-31T05:02:58;2.90;;;1.70;;
79640;SDS011;69115;49.904;14.390;2023-10-31T05:05:26;2.58;;;1.70;;
79640;SDS011;69115;49.904;14.390;2023-10-31T05:07:51;2.55;;;1.77;;
79640;SDS011;69115;49.904;14.390;2023-10-31T05:10:17;2.78;;;1.38;;
79640;SDS011;69115;49.904;14.390;2023-10-31T05:12:42;2.35;;;1.52;;
79640;SDS011;69115;49.904;14.390;2023-10-31T05:15:08;2.33;;;1.50;;
79640;SDS011;69115;49.904;14.390;2023-10-31T05:17:34;2.00;;;1.30;;
79640;SDS011;69115;49.904;14.390;2023-10-31T05:19:59;1.55;;;1.25;;
79640;SDS011;69115;49.904;14.390;2023-10-31T05:22:25;1.80;;;1.50;;
79640;SDS011;69115;49.904;14.390;2023-10-31T05:24:50;1.58;;;1.30;;
79640;SDS011;69115;49.904;14.390;2023-10-31T05:27:16;1.60;;;1.30;;
79640;SDS011;69115;49.904;14.390;2023-10-31T05:29:41;1.55;;;1.10;;
79640;SDS011;69115;49.904;14.390;2023-10-31T05:32:07;3.03;;;1.35;;
79640;SDS011;69115;49.904;14.390;2023-10-31T05:34:33;2.00;;;1.33;;
79640;SDS011;69115;49.904;14.390;2023-10-31T05:37:01;2.15;;;1.33;;
79640;SDS011;69115;49.904;14.390;2023-10-31T05:39:27;1.40;;;1.27;;
79640;SDS011;69115;49.904;14.390;2023-10-31T05:41:53;2.30;;;1.50;;
79640;SDS011;69115;49.904;14.390;2023-10-31T05:44:18;1.77;;;1.25;;
79640;SDS011;69115;49.904;14.390;2023-10-31T05:46:44;2.55;;;1.38;;
79640;SDS011;69115;49.904;14.390;2023-10-31T05:49:10;1.98;;;1.35;;
79640;SDS011;69115;49.904;14.390;2023-10-31T05:51:35;1.90;;;1.40;;
79640;SDS011;69115;49.904;14.390;2023-10-31T05:54:01;3.00;;;1.30;;
79640;SDS011;69115;49.904;14.390;2023-10-31T05:56:27;2.30;;;1.40;;
79640;SDS011;69115;49.904;14.390;2023-10-31T05:58:52;2.25;;;1.33;;
79640;SDS011;69115;49.904;14.390;2023-10-31T06:01:21;3.28;;;1.38;;
79640;SDS011;69115;49.904;14.390;2023-10-31T06:03:46;3.35;;;1.25;;
79640;SDS011;69115;49.904;14.390;2023-10-31T06:06:12;1.48;;;1.30;;
79640;SDS011;69115;49.904;14.390;2023-10-31T06:08:38;2.60;;;1.50;;
79640;SDS011;69115;49.904;14.390;2023-10-31T06:11:04;2.78;;;1.20;;
79640;SDS011;69115;49.904;14.390;2023-10-31T06:13:29;2.10;;;1.40;;
79640;SDS011;69115;49.904;14.390;2023-10-31T06:15:56;1.48;;;1.10;;
79640;SDS011;69115;49.904;14.390;2023-10-31T06:18:23;1.42;;;1.30;;
79640;SDS011;69115;49.904;14.390;2023-10-31T06:20:48;1.58;;;1.20;;
79640;SDS011;69115;49.904;14.390;2023-10-31T06:23:14;1.75;;;1.30;;
79640;SDS011;69115;49.904;14.390;2023-10-31T06:25:40;1.73;;;1.25;;
79640;SDS011;69115;49.904;14.390;2023-10-31T06:28:05;1.80;;;1.30;;
79640;SDS011;69115;49.904;14.390;2023-10-31T06:30:30;1.77;;;1.20;;
79640;SDS011;69115;49.904;14.390;2023-10-31T06:32:56;1.80;;;1.30;;
79640;SDS011;69115;49.904;14.390;2023-10-31T06:35:24;1.77;;;1.20;;
79640;SDS011;69115;49.904;14.390;2023-10-31T06:37:51;2.33;;;1.23;;
79640;SDS011;69115;49.904;14.390;2023-10-31T06:40:17;1.60;;;1.17;;
79640;SDS011;69115;49.904;14.390;2023-10-31T06:42:42;1.08;;;1.00;;
79640;SDS011;69115;49.904;14.390;2023-10-31T06:45:08;1.20;;;1.10;;
79640;SDS011;69115;49.904;14.390;2023-10-31T06:47:34;1.95;;;1.10;;
79640;SDS011;69115;49.904;14.390;2023-10-31T06:49:59;1.52;;;1.10;;
79640;SDS011;69115;49.904;14.390;2023-10-31T06:52:25;2.50;;;1.23;;
79640;SDS011;69115;49.904;14.390;2023-10-31T06:54:50;2.00;;;1.20;;
79640;SDS011;69115;49.904;14.390;2023-10-31T06:57:16;2.72;;;1.23;;
79640;SDS011;69115;49.904;14.390;2023-10-31T06:59:41;2.60;;;1.10;;
79640;SDS011;69115;49.904;14.390;2023-10-31T07:02:07;1.23;;;1.10;;
79640;SDS011;69115;49.904;14.390;2023-10-31T07:04:33;1.70;;;1.20;;
79640;SDS011;69115;49.904;14.390;2023-10-31T07:06:59;1.65;;;1.20;;
79640;SDS011;69115;49.904;14.390;2023-10-31T07:09:25;2.20;;;1.23;;
79640;SDS011;69115;49.904;14.390;2023-10-31T07:11:51;1.65;;;1.20;;
79640;SDS011;69115;49.904;14.390;2023-10-31T07:14:16;1.50;;;1.20;;
79640;SDS011;69115;49.904;14.390;2023-10-31T07:16:42;1.83;;;1.30;;
79640;SDS011;69115;49.904;14.390;2023-10-31T07:19:09;2.92;;;1.20;;
79640;SDS011;69115;49.904;14.390;2023-10-31T07:21:35;1.15;;;1.05;;
79640;SDS011;69115;49.904;14.390;2023-10-31T07:24:03;1.67;;;1.20;;
79640;SDS011;69115;49.904;14.390;2023-10-31T07:26:30;1.80;;;1.20;;
79640;SDS011;69115;49.904;14.390;2023-10-31T07:28:55;3.25;;;1.40;;
79640;SDS011;69115;49.904;14.390;2023-10-31T07:31:21;1.30;;;1.10;;
79640;SDS011;69115;49.904;14.390;2023-10-31T07:33:47;3.40;;;1.25;;
79640;SDS011;69115;49.904;14.390;2023-10-31T07:36:12;1.10;;;1.00;;
79640;SDS011;69115;49.904;14.390;2023-10-31T07:38:38;1.75;;;1.23;;
79640;SDS011;69115;49.904;14.390;2023-10-31T07:41:04;1.92;;;1.20;;
79640;SDS011;69115;49.904;14.390;2023-10-31T07:43:29;2.13;;;1.30;;
79640;SDS011;69115;49.904;14.390;2023-10-31T07:45:55;1.90;;;1.17;;
79640;SDS011;69115;49.904;14.390;2023-10-31T07:48:20;1.75;;;1.13;;
79640;SDS011;69115;49.904;14.390;2023-10-31T07:50:46;1.98;;;1.30;;
79640;SDS011;69115;49.904;14.390;2023-10-31T07:53:11;1.75;;;1.30;;
79640;SDS011;69115;49.904;14.390;2023-10-31T07:55:37;2.60;;;1.27;;
79640;SDS011;69115;49.904;14.390;2023-10-31T07:58:02;3.70;;;1.75;;
79640;SDS011;69115;49.904;14.390;2023-10-31T08:00:28;3.85;;;1.85;;
79640;SDS011;69115;49.904;14.390;2023-10-31T08:02:53;7.00;;;2.80;;
79640;SDS011;69115;49.904;14.390;2023-10-31T08:05:18;2.85;;;1.83;;
79640;SDS011;69115;49.904;14.390;2023-10-31T08:07:44;4.20;;;2.00;;
79640;SDS011;69115;49.904;14.390;2023-10-31T08:10:09;4.05;;;2.08;;
79640;SDS011;69115;49.904;14.390;2023-10-31T08:12:35;5.80;;;2.50;;
79640;SDS011;69115;49.904;14.390;2023-10-31T08:15:01;4.18;;;1.60;;
79640;SDS011;69115;49.904;14.390;2023-10-31T08:17:27;4.65;;;2.50;;
79640;SDS011;69115;49.904;14.390;2023-10-31T08:19:52;3.60;;;2.10;;
79640;SDS011;69115;49.904;14.390;2023-10-31T08:22:18;3.75;;;2.00;;
79640;SDS011;69115;49.904;14.390;2023-10-31T08:24:43;2.65;;;1.60;;
79640;SDS011;69115;49.904;14.390;2023-10-31T08:27:09;3.38;;;2.33;;
79640;SDS011;69115;49.904;14.390;2023-10-31T08:29:35;3.60;;;2.00;;
79640;SDS011;69115;49.904;14.390;2023-10-31T08:32:00;2.67;;;1.40;;
79640;SDS011;69115;49.904;14.390;2023-10-31T08:34:26;3.13;;;1.35;;
79640;SDS011;69115;49.904;14.390;2023-10-31T08:36:52;1.92;;;1.40;;
79640;SDS011;69115;49.904;14.390;2023-10-31T08:39:17;2.60;;;1.48;;
79640;SDS011;69115;49.904;14.390;2023-10-31T08:41:56;2.30;;;1.20;;
79640;SDS011;69115;49.904;14.390;2023-10-31T08:44:22;4.97;;;1.40;;
79640;SDS011;69115;49.904;14.390;2023-10-31T08:46:48;3.47;;;1.20;;
79640;SDS011;69115;49.904;14.390;2023-10-31T08:49:15;1.50;;;1.25;;
79640;SDS011;69115;49.904;14.390;2023-10-31T08:51:41;2.25;;;1.30;;
79640;SDS011;69115;49.904;14.390;2023-10-31T08:54:06;1.50;;;1.17;;
79640;SDS011;69115;49.904;14.390;2023-10-31T08:56:32;1.85;;;1.30;;
79640;SDS011;69115;49.904;14.390;2023-10-31T08:58:58;2.35;;;1.20;;
79640;SDS011;69115;49.904;14.390;2023-10-31T09:01:23;3.58;;;1.40;;
79640;SDS011;69115;49.904;14.390;2023-10-31T09:03:48;2.70;;;1.73;;
79640;SDS011;69115;49.904;14.390;2023-10-31T09:06:14;2.25;;;1.40;;
79640;SDS011;69115;49.904;14.390;2023-10-31T09:08:39;3.05;;;1.40;;
79640;SDS011;69115;49.904;14.390;2023-10-31T09:11:05;2.10;;;1.40;;
79640;SDS011;69115;49.904;14.390;2023-10-31T09:13:31;2.20;;;1.40;;
79640;SDS011;69115;49.904;14.390;2023-10-31T09:15:58;2.25;;;1.38;;
79640;SDS011;69115;49.904;14.390;2023-10-31T09:18:24;4.00;;;1.42;;
79640;SDS011;69115;49.904;14.390;2023-10-31T09:20:49;1.95;;;1.40;;
79640;SDS011;69115;49.904;14.390;2023-10-31T09:23:15;1.55;;;1.30;;
79640;SDS011;69115;49.904;14.390;2023-10-31T09:25:42;2.80;;;1.33;;
79640;SDS011;69115;49.904;14.390;2023-10-31T09:28:08;2.33;;;1.50;;
79640;SDS011;69115;49.904;14.390;2023-10-31T09:30:33;2.15;;;1.45;;
79640;SDS011;69115;49.904;14.390;2023-10-31T09:32:59;1.70;;;1.20;;
79640;SDS011;69115;49.904;14.390;2023-10-31T09:35:24;1.88;;;1.52;;
79640;SDS011;69115;49.904;14.390;2023-10-31T09:37:51;1.80;;;1.30;;
79640;SDS011;69115;49.904;14.390;2023-10-31T09:40:16;2.92;;;1.77;;
79640;SDS011;69115;49.904;14.390;2023-10-31T09:42:43;2.78;;;1.70;;
79640;SDS011;69115;49.904;14.390;2023-10-31T09:45:10;3.90;;;2.05;;
79640;SDS011;69115;49.904;14.390;2023-10-31T09:47:36;3.05;;;1.80;;
79640;SDS011;69115;49.904;14.390;2023-10-31T09:50:02;3.03;;;1.63;;
79640;SDS011;69115;49.904;14.390;2023-10-31T09:52:28;5.65;;;2.58;;
79640;SDS011;69115;49.904;14.390;2023-10-31T09:54:54;3.83;;;2.28;;
79640;SDS011;69115;49.904;14.390;2023-10-31T09:57:20;3.20;;;1.80;;
79640;SDS011;69115;49.904;14.390;2023-10-31T09:59:46;3.72;;;1.60;;
79640;SDS011;69115;49.904;14.390;2023-10-31T10:02:11;3.88;;;1.60;;
79640;SDS011;69115;49.904;14.390;2023-10-31T10:04:37;3.63;;;1.55;;
79640;SDS011;69115;49.904;14.390;2023-10-31T10:07:03;2.53;;;1.40;;
79640;SDS011;69115;49.904;14.390;2023-10-31T10:09:29;1.25;;;1.10;;
79640;SDS011;69115;49.904;14.390;2023-10-31T10:11:57;3.63;;;1.42;;
79640;SDS011;69115;49.904;14.390;2023-10-31T10:14:24;4.00;;;1.40;;
79640;SDS011;69115;49.904;14.390;2023-10-31T10:16:50;2.40;;;1.40;;
79640;SDS011;69115;49.904;14.390;2023-10-31T10:19:19;2.65;;;1.50;;
79640;SDS011;69115;49.904;14.390;2023-10-31T10:21:51;2.42;;;1.50;;
79640;SDS011;69115;49.904;14.390;2023-10-31T10:24:18;3.28;;;1.65;;
79640;SDS011;69115;49.904;14.390;2023-10-31T10:26:45;2.58;;;1.45;;
79640;SDS011;69115;49.904;14.390;2023-10-31T10:29:11;2.97;;;1.50;;
79640;SDS011;69115;49.904;14.390;2023-10-31T10:31:36;1.90;;;1.40;;
79640;SDS011;69115;49.904;14.390;2023-10-31T10:34:02;2.67;;;1.45;;
79640;SDS011;69115;49.904;14.390;2023-10-31T10:36:28;1.98;;;1.30;;
79640;SDS011;69115;49.904;14.390;2023-10-31T10:38:55;2.80;;;1.50;;
79640;SDS011;69115;49.904;14.390;2023-10-31T10:41:22;4.10;;;1.38;;
79640;SDS011;69115;49.904;14.390;2023-10-31T10:43:50;5.18;;;1.70;;
79640;SDS011;69115;49.904;14.390;2023-10-31T10:48:47;2.60;;;1.50;;
79640;SDS011;69115;49.904;14.390;2023-10-31T10:51:17;2.33;;;1.50;;
79640;SDS011;69115;49.904;14.390;2023-10-31T10:53:49;3.05;;;1.50;;
79640;SDS011;69115;49.904;14.390;2023-10-31T10:56:21;2.28;;;1.40;;
79640;SDS011;69115;49.904;14.390;2023-10-31T10:59:13;2.00;;;1.30;;
79640;SDS011;69115;49.904;14.390;2023-10-31T11:01:41;5.70;;;1.70;;
79640;SDS011;69115;49.904;14.390;2023-10-31T11:04:07;2.25;;;1.60;;
79640;SDS011;69115;49.904;14.390;2023-10-31T11:06:36;1.83;;;1.30;;
79640;SDS011;69115;49.904;14.390;2023-10-31T11:09:03;2.85;;;1.55;;
79640;SDS011;69115;49.904;14.390;2023-10-31T11:11:31;1.83;;;1.40;;
79640;SDS011;69115;49.904;14.390;2023-10-31T11:13:57;2.60;;;1.30;;
79640;SDS011;69115;49.904;14.390;2023-10-31T11:16:26;3.67;;;1.40;;
79640;SDS011;69115;49.904;14.390;2023-10-31T11:19:09;1.83;;;1.40;;
79640;SDS011;69115;49.904;14.390;2023-10-31T11:21:35;4.63;;;1.50;;
79640;SDS011;69115;49.904;14.390;2023-10-31T11:24:01;2.30;;;1.30;;
79640;SDS011;69115;49.904;14.390;2023-10-31T11:26:29;2.28;;;1.40;;
79640;SDS011;69115;49.904;14.390;2023-10-31T11:29:05;3.90;;;1.35;;
79640;SDS011;69115;49.904;14.390;2023-10-31T11:31:31;2.00;;;1.50;;
79640;SDS011;69115;49.904;14.390;2023-10-31T11:34:00;4.20;;;1.40;;
79640;SDS011;69115;49.904;14.390;2023-10-31T11:36:26;2.60;;;1.65;;
79640;SDS011;69115;49.904;14.390;2023-10-31T11:38:52;1.85;;;1.42;;
79640;SDS011;69115;49.904;14.390;2023-10-31T11:41:38;3.25;;;1.50;;
79640;SDS011;69115;49.904;14.390;2023-10-31T11:44:04;2.50;;;1.58;;
79640;SDS011;69115;49.904;14.390;2023-10-31T11:46:32;2.53;;;1.40;;
79640;SDS011;69115;49.904;14.390;2023-10-31T11:48:58;2.28;;;1.40;;
79640;SDS011;69115;49.904;14.390;2023-10-31T11:51:25;2.47;;;1.50;;
79640;SDS011;69115;49.904;14.390;2023-10-31T11:53:51;2.75;;;1.65;;
79640;SDS011;69115;49.904;14.390;2023-10-31T11:56:17;3.15;;;1.50;;
79640;SDS011;69115;49.904;14.390;2023-10-31T11:59:03;3.33;;;1.60;;
79640;SDS011;69115;49.904;14.390;2023-10-31T12:01:29;2.97;;;1.40;;
79640;SDS011;69115;49.904;14.390;2023-10-31T12:03:55;1.77;;;1.30;;
79640;SDS011;69115;49.904;14.390;2023-10-31T12:06:20;2.72;;;1.38;;
79640;SDS011;69115;49.904;14.390;2023-10-31T12:08:46;3.35;;;1.45;;
79640;SDS011;69115;49.904;14.390;2023-10-31T12:13:55;2.17;;;1.40;;
79640;SDS011;69115;49.904;14.390;2023-10-31T12:16:26;1.65;;;1.35;;
79640;SDS011;69115;49.904;14.390;2023-10-31T12:18:56;1.65;;;1.30;;
79640;SDS011;69115;49.904;14.390;2023-10-31T12:21:42;2.15;;;1.40;;
79640;SDS011;69115;49.904;14.390;2023-10-31T12:24:15;3.58;;;1.70;;
79640;SDS011;69115;49.904;14.390;2023-10-31T12:26:42;2.40;;;1.50;;
79640;SDS011;69115;49.904;14.390;2023-10-31T12:31:53;3.30;;;1.70;;
79640;SDS011;69115;49.904;14.390;2023-10-31T12:34:20;3.75;;;1.75;;
79640;SDS011;69115;49.904;14.390;2023-10-31T12:36:47;3.85;;;1.60;;
79640;SDS011;69115;49.904;14.390;2023-10-31T12:39:16;2.45;;;1.50;;
79640;SDS011;69115;49.904;14.390;2023-10-31T12:41:42;2.35;;;1.48;;
79640;SDS011;69115;49.904;14.390;2023-10-31T12:44:09;3.30;;;1.52;;
79640;SDS011;69115;49.904;14.390;2023-10-31T12:46:37;2.50;;;1.50;;
79640;SDS011;69115;49.904;14.390;2023-10-31T12:49:04;1.95;;;1.50;;
79640;SDS011;69115;49.904;14.390;2023-10-31T12:51:29;2.72;;;1.23;;
79640;SDS011;69115;49.904;14.390;2023-10-31T12:53:55;2.22;;;1.20;;
79640;SDS011;69115;49.904;14.390;2023-10-31T12:59:10;4.25;;;1.70;;
79640;SDS011;69115;49.904;14.390;2023-10-31T13:01:41;2.60;;;1.35;;
79640;SDS011;69115;49.904;14.390;2023-10-31T13:04:08;2.20;;;1.45;;
79640;SDS011;69115;49.904;14.390;2023-10-31T13:06:34;4.90;;;1.92;;
79640;SDS011;69115;49.904;14.390;2023-10-31T13:09:00;2.00;;;1.67;;
79640;SDS011;69115;49.904;14.390;2023-10-31T13:11:29;4.72;;;1.52;;
79640;SDS011;69115;49.904;14.390;2023-10-31T13:13:55;4.22;;;1.60;;
79640;SDS011;69115;49.904;14.390;2023-10-31T13:16:22;3.65;;;1.90;;
79640;SDS011;69115;49.904;14.390;2023-10-31T13:18:48;2.95;;;2.00;;
79640;SDS011;69115;49.904;14.390;2023-10-31T13:21:14;4.72;;;2.40;;
79640;SDS011;69115;49.904;14.390;2023-10-31T13:23:41;5.28;;;2.53;;
79640;SDS011;69115;49.904;14.390;2023-10-31T13:26:10;7.45;;;3.20;;
79640;SDS011;69115;49.904;14.390;2023-10-31T13:28:39;5.50;;;2.60;;
79640;SDS011;69115;49.904;14.390;2023-10-31T13:31:05;4.28;;;2.17;;
79640;SDS011;69115;49.904;14.390;2023-10-31T13:33:32;4.78;;;2.15;;
79640;SDS011;69115;49.904;14.390;2023-10-31T13:35:58;4.75;;;2.38;;
79640;SDS011;69115;49.904;14.390;2023-10-31T13:38:23;3.85;;;1.75;;
79640;SDS011;69115;49.904;14.390;2023-10-31T13:40:49;2.05;;;1.40;;
79640;SDS011;69115;49.904;14.390;2023-10-31T13:43:14;5.68;;;1.65;;
79640;SDS011;69115;49.904;14.390;2023-10-31T13:45:40;2.90;;;1.45;;
79640;SDS011;69115;49.904;14.390;2023-10-31T13:48:05;4.03;;;2.28;;
79640;SDS011;69115;49.904;14.390;2023-10-31T13:50:31;5.97;;;1.98;;
79640;SDS011;69115;49.904;14.390;2023-10-31T13:52:57;2.70;;;1.85;;
79640;SDS011;69115;49.904;14.390;2023-10-31T13:55:22;2.85;;;1.70;;
79640;SDS011;69115;49.904;14.390;2023-10-31T13:57:51;3.10;;;1.90;;
79640;SDS011;69115;49.904;14.390;2023-10-31T14:00:17;4.30;;;2.38;;
79640;SDS011;69115;49.904;14.390;2023-10-31T14:02:43;4.45;;;2.20;;
79640;SDS011;69115;49.904;14.390;2023-10-31T14:05:09;3.20;;;2.00;;
79640;SDS011;69115;49.904;14.390;2023-10-31T14:07:34;3.28;;;1.80;;
79640;SDS011;69115;49.904;14.390;2023-10-31T14:10:00;2.65;;;1.75;;
79640;SDS011;69115;49.904;14.390;2023-10-31T14:12:26;3.10;;;1.70;;
79640;SDS011;69115;49.904;14.390;2023-10-31T14:14:53;2.60;;;1.60;;
79640;SDS011;69115;49.904;14.390;2023-10-31T14:17:18;2.60;;;1.77;;
79640;SDS011;69115;49.904;14.390;2023-10-31T14:19:44;5.53;;;2.33;;
79640;SDS011;69115;49.904;14.390;2023-10-31T14:22:11;6.53;;;2.53;;
79640;SDS011;69115;49.904;14.390;2023-10-31T14:24:38;4.47;;;2.60;;
79640;SDS011;69115;49.904;14.390;2023-10-31T14:27:03;4.05;;;2.40;;
79640;SDS011;69115;49.904;14.390;2023-10-31T14:29:29;3.03;;;1.80;;
79640;SDS011;69115;49.904;14.390;2023-10-31T14:31:54;3.65;;;2.22;;
79640;SDS011;69115;49.904;14.390;2023-10-31T14:34:22;3.30;;;1.80;;
79640;SDS011;69115;49.904;14.390;2023-10-31T14:36:47;3.85;;;1.75;;
79640;SDS011;69115;49.904;14.390;2023-10-31T14:39:13;4.25;;;1.70;;
79640;SDS011;69115;49.904;14.390;2023-10-31T14:41:39;2.45;;;1.52;;